Time;durP1;ratioP1;P1;durP2;ratioP2;P2;SDS_P1;SDS_P2;PMS_P1;PMS_P2;Temp;Humidity;BMP_temperature;BMP_pressure;BME280_temperature;BME280_humidity;BME280_pressure;Samples;Min_cycle;Max_cycle;Signal;HPM_P1;HPM_P2
2023/07/06 00:00:15;;;;;;;4.33;1.77;;;12.30;41.40;;;;;;5094549;28;20180;-45
2023/07/06 00:02:41;;;;;;;5.87;2.20;;;12.30;41.30;;;;;;5094673;28;20328;-45
2023/07/06 00:05:08;;;;;;;3.67;2.10;;;12.30;42.90;;;;;;5094403;28;20206;-45
2023/07/06 00:07:34;;;;;;;8.20;2.40;;;12.20;42.20;;;;;;5094711;28;20186;-48
2023/07/06 00:10:00;;;;;;;5.83;2.40;;;12.20;40.20;;;;;;5094068;28;20517;-46
2023/07/06 00:12:26;;;;;;;5.53;2.23;;;12.10;39.10;;;;;;5094369;28;20179;-47
2023/07/06 00:14:52;;;;;;;4.73;2.33;;;12.10;37.30;;;;;;5094137;28;20206;-47
2023/07/06 00:17:17;;;;;;;5.40;1.97;;;12.10;37.00;;;;;;5094544;28;20185;-47
2023/07/06 00:19:43;;;;;;;5.80;2.30;;;12.00;36.20;;;;;;5094220;28;20171;-47
2023/07/06 00:22:11;;;;;;;4.20;2.40;;;12.00;37.20;;;;;;5094945;28;20251;-47
2023/07/06 00:24:37;;;;;;;5.90;2.27;;;11.90;45.70;;;;;;5092838;28;20219;-47
2023/07/06 00:27:03;;;;;;;10.60;2.20;;;11.90;48.50;;;;;;5094379;28;20262;-47
2023/07/06 00:29:34;;;;;;;7.67;2.20;;;11.90;52.00;;;;;;5094038;28;20195;-47
2023/07/06 00:32:27;;;;;;;6.53;2.50;;;11.90;53.90;;;;;;5094347;28;20170;-47
2023/07/06 00:34:56;;;;;;;6.20;2.23;;;11.90;55.70;;;;;;5094208;28;20199;-47
2023/07/06 00:37:22;;;;;;;5.70;1.90;;;11.80;62.00;;;;;;5093083;28;20182;-47
2023/07/06 00:39:49;;;;;;;7.67;2.33;;;11.80;99.90;;;;;;5093758;28;20236;-47
2023/07/06 00:42:16;;;;;;;7.37;2.53;;;11.80;99.90;;;;;;5093780;28;20559;-47
2023/07/06 00:44:59;;;;;;;9.27;2.37;;;11.80;99.90;;;;;;5093760;28;20191;-45
2023/07/06 00:47:33;;;;;;;8.80;2.40;;;11.80;99.90;;;;;;5094057;28;20194;-48
2023/07/06 00:50:06;;;;;;;9.30;2.27;;;11.80;99.90;;;;;;5095094;28;20159;-42
2023/07/06 00:52:32;;;;;;;9.30;2.37;;;11.80;99.90;;;;;;5093961;28;20171;-42
2023/07/06 00:55:01;;;;;;;8.67;2.33;;;11.70;99.90;;;;;;5094855;28;20218;-44
2023/07/06 00:57:28;;;;;;;6.80;1.93;;;11.70;99.90;;;;;;5094295;28;20183;-42
2023/07/06 00:59:54;;;;;;;4.67;2.30;;;11.70;99.90;;;;;;5093842;28;20228;-42
2023/07/06 01:02:20;;;;;;;7.37;2.17;;;11.60;99.90;;;;;;5092319;28;20210;-42
2023/07/06 01:04:46;;;;;;;12.13;2.20;;;11.60;99.90;;;;;;5093967;28;20198;-43
2023/07/06 01:07:22;;;;;;;3.50;2.47;;;11.60;99.90;;;;;;5093677;28;20171;-43
2023/07/06 01:09:49;;;;;;;10.27;2.57;;;11.60;99.90;;;;;;5094098;28;20646;-42
2023/07/06 01:12:16;;;;;;;8.97;1.97;;;11.50;99.90;;;;;;5093733;28;20520;-44
2023/07/06 01:14:42;;;;;;;6.00;2.20;;;11.50;99.90;;;;;;5093615;28;20253;-43
2023/07/06 01:17:18;;;;;;;9.40;2.27;;;11.50;99.90;;;;;;5093728;28;20651;-44
2023/07/06 01:20:03;;;;;;;3.33;1.77;;;11.50;99.90;;;;;;5093506;28;20201;-42
2023/07/06 01:23:04;;;;;;;7.17;1.80;;;11.40;99.90;;;;;;5096187;28;20203;-41
2023/07/06 01:25:59;;;;;;;3.60;1.57;;;11.40;99.90;;;;;;5097821;28;20277;-43
2023/07/06 01:28:41;;;;;;;10.97;2.17;;;11.30;99.90;;;;;;5097520;28;20171;-42
2023/07/06 01:31:29;;;;;;;9.07;2.20;;;11.30;99.90;;;;;;5097752;28;20250;-43
2023/07/06 01:34:14;;;;;;;11.27;2.30;;;11.30;99.90;;;;;;5097442;28;20546;-43
2023/07/06 01:36:57;;;;;;;7.53;2.00;;;11.20;99.90;;;;;;5092156;28;20286;-43
2023/07/06 01:39:27;;;;;;;8.23;1.97;;;11.20;99.90;;;;;;5095955;28;20201;-42
2023/07/06 01:42:12;;;;;;;7.67;2.10;;;11.20;99.90;;;;;;5097207;28;20253;-44
2023/07/06 01:44:42;;;;;;;4.73;1.77;;;11.20;99.90;;;;;;5097498;28;20205;-42
2023/07/06 01:47:09;;;;;;;5.83;2.00;;;11.20;99.90;;;;;;5097146;28;20163;-43
2023/07/06 01:49:35;;;;;;;6.77;2.73;;;11.10;99.90;;;;;;5098683;28;20278;-43
2023/07/06 01:52:24;;;;;;;4.23;1.90;;;11.10;99.90;;;;;;5097124;28;20178;-40
2023/07/06 01:55:23;;;;;;;6.80;2.07;;;11.10;99.90;;;;;;5097391;28;20194;-43
2023/07/06 01:57:55;;;;;;;11.80;2.87;;;11.10;99.90;;;;;;5097427;28;20174;-41
2023/07/06 02:00:22;;;;;;;10.83;2.10;;;11.10;99.90;;;;;;5097257;28;20674;-40
2023/07/06 02:02:51;;;;;;;7.37;2.43;;;11.10;99.90;;;;;;5097033;28;20199;-43
2023/07/06 02:05:18;;;;;;;8.67;2.30;;;11.00;99.90;;;;;;5098049;28;20547;-41
2023/07/06 02:07:44;;;;;;;8.47;2.37;;;11.00;99.90;;;;;;5097170;28;20183;-43
2023/07/06 02:10:14;;;;;;;7.83;2.17;;;11.00;99.90;;;;;;5097107;28;20228;-42
2023/07/06 02:12:40;;;;;;;7.70;2.10;;;11.00;99.90;;;;;;5097218;28;20205;-39
2023/07/06 02:15:06;;;;;;;7.10;1.90;;;11.00;99.90;;;;;;5096884;28;20206;-39
2023/07/06 02:17:32;;;;;;;9.80;2.07;;;11.00;99.90;;;;;;5096781;28;20228;-41
2023/07/06 02:19:59;;;;;;;9.03;2.87;;;10.90;99.90;;;;;;5096735;28;20584;-41
2023/07/06 02:22:27;;;;;;;8.00;2.23;;;10.90;99.90;;;;;;5097126;28;20195;-43
2023/07/06 02:24:52;;;;;;;15.37;2.27;;;10.90;99.90;;;;;;5096818;28;20214;-43
2023/07/06 02:27:19;;;;;;;7.93;2.10;;;10.80;99.90;;;;;;5096458;28;20214;-41
2023/07/06 02:29:45;;;;;;;9.13;2.20;;;10.80;99.90;;;;;;5096599;28;20191;-42
2023/07/06 02:32:11;;;;;;;8.87;2.23;;;10.80;99.90;;;;;;5096611;28;20265;-44
2023/07/06 02:34:37;;;;;;;5.33;1.80;;;10.80;99.90;;;;;;5096268;28;20199;-43
2023/07/06 02:37:03;;;;;;;14.87;2.10;;;10.80;99.90;;;;;;5096409;28;20182;-42
2023/07/06 02:39:29;;;;;;;8.83;1.83;;;10.80;99.90;;;;;;5096155;28;20198;-39
2023/07/06 02:41:56;;;;;;;7.43;2.10;;;10.70;99.90;;;;;;5096422;28;20202;-42
2023/07/06 02:44:23;;;;;;;15.70;2.40;;;10.70;99.90;;;;;;5096115;28;20191;-43
2023/07/06 02:46:49;;;;;;;3.10;1.80;;;10.70;99.90;;;;;;5096409;28;20542;-43
2023/07/06 02:49:16;;;;;;;10.13;2.30;;;10.70;99.90;;;;;;5096941;28;20183;-43
2023/07/06 02:51:42;;;;;;;15.57;2.77;;;10.70;99.90;;;;;;5096283;28;20583;-41
2023/07/06 02:54:10;;;;;;;10.77;2.73;;;10.60;99.90;;;;;;5094622;28;20183;-41
2023/07/06 02:56:35;;;;;;;12.40;2.37;;;10.60;99.90;;;;;;5095895;28;20214;-43
2023/07/06 02:59:01;;;;;;;6.53;2.13;;;10.60;99.90;;;;;;5095933;28;20213;-41
2023/07/06 03:01:27;;;;;;;15.17;2.77;;;10.60;99.90;;;;;;5096502;28;20251;-43
2023/07/06 03:03:52;;;;;;;11.00;2.47;;;10.60;99.90;;;;;;5096042;28;20715;-42
2023/07/06 03:06:18;;;;;;;4.37;1.83;;;10.50;99.90;;;;;;5095892;28;20195;-41
2023/07/06 03:08:46;;;;;;;14.20;2.77;;;10.60;99.90;;;;;;5095783;28;20257;-40
2023/07/06 03:11:11;;;;;;;8.80;1.83;;;10.50;99.90;;;;;;5095705;28;20171;-42
2023/07/06 03:13:37;;;;;;;5.17;1.70;;;10.50;99.90;;;;;;5095734;28;20185;-42
2023/07/06 03:16:05;;;;;;;17.03;2.40;;;10.50;99.90;;;;;;5096290;28;20209;-42
2023/07/06 03:18:30;;;;;;;20.90;2.63;;;10.50;99.90;;;;;;5095656;28;20175;-41
2023/07/06 03:20:56;;;;;;;7.30;2.13;;;10.50;99.90;;;;;;5095482;28;20667;-43
2023/07/06 03:23:23;;;;;;;9.20;1.70;;;10.40;99.90;;;;;;5095885;28;20232;-44
2023/07/06 03:25:53;;;;;;;7.50;2.40;;;10.40;99.90;;;;;;5095556;28;20198;-40
2023/07/06 03:28:20;;;;;;;12.47;2.03;;;10.40;99.90;;;;;;5095653;28;20175;-41
2023/07/06 03:30:54;;;;;;;12.43;2.20;;;10.40;99.90;;;;;;5095641;28;20211;-42
2023/07/06 03:33:19;;;;;;;11.70;2.33;;;10.40;99.90;;;;;;5095361;28;20167;-42
2023/07/06 03:35:45;;;;;;;6.43;2.50;;;10.40;99.90;;;;;;5095361;28;20198;-42
2023/07/06 03:38:12;;;;;;;7.90;2.10;;;10.30;99.90;;;;;;5095127;28;20182;-41
2023/07/06 03:40:38;;;;;;;13.63;2.20;;;10.30;99.90;;;;;;5093784;28;20574;-42
2023/07/06 03:43:04;;;;;;;12.07;2.70;;;10.30;99.90;;;;;;5095015;28;20289;-40
2023/07/06 03:45:30;;;;;;;13.50;2.47;;;10.30;99.90;;;;;;5094459;28;20241;-45
2023/07/06 03:47:56;;;;;;;10.80;2.17;;;10.30;99.90;;;;;;5093970;28;20178;-43
2023/07/06 03:50:21;;;;;;;5.90;2.17;;;10.30;99.90;;;;;;5096151;28;20167;-41
2023/07/06 03:52:47;;;;;;;12.80;2.00;;;10.20;99.90;;;;;;5095092;28;20186;-46
2023/07/06 03:55:26;;;;;;;11.80;2.17;;;10.30;99.90;;;;;;5094982;28;20195;-42
2023/07/06 03:57:52;;;;;;;8.23;1.77;;;10.30;99.90;;;;;;5094704;28;20179;-41
2023/07/06 04:00:22;;;;;;;9.27;2.67;;;10.30;99.90;;;;;;5095339;28;20539;-41
2023/07/06 04:02:49;;;;;;;13.03;2.13;;;10.20;99.90;;;;;;5094722;28;20182;-43
2023/07/06 04:05:19;;;;;;;8.23;1.80;;;10.20;99.90;;;;;;5094913;28;20198;-41
2023/07/06 04:07:47;;;;;;;7.03;1.93;;;10.30;99.90;;;;;;5094927;28;20175;-40
2023/07/06 04:10:12;;;;;;;5.87;2.10;;;10.30;99.90;;;;;;5094538;28;20221;-42
2023/07/06 04:12:38;;;;;;;10.47;2.23;;;10.30;99.90;;;;;;5094636;28;20186;-41
2023/07/06 04:15:07;;;;;;;13.87;2.53;;;10.30;99.90;;;;;;5095271;28;20206;-39
2023/07/06 04:17:36;;;;;;;12.20;2.10;;;10.30;99.90;;;;;;5094494;28;20551;-40
2023/07/06 04:20:17;;;;;;;8.43;1.70;;;10.30;99.90;;;;;;5094368;28;20666;-40
2023/07/06 04:22:43;;;;;;;11.87;1.87;;;10.30;99.90;;;;;;5094886;28;20280;-39
2023/07/06 04:25:09;;;;;;;6.17;1.90;;;10.40;99.90;;;;;;5094156;28;20218;-42
2023/07/06 04:27:35;;;;;;;10.53;1.83;;;10.40;99.90;;;;;;5094565;28;20201;-41
2023/07/06 04:30:01;;;;;;;6.27;1.57;;;10.50;99.90;;;;;;5094681;28;20251;-42
2023/07/06 04:32:31;;;;;;;13.33;2.47;;;10.40;99.90;;;;;;5094390;28;20630;-42
2023/07/06 04:34:58;;;;;;;9.73;1.73;;;10.50;99.90;;;;;;5094388;28;20621;-41
2023/07/06 04:37:23;;;;;;;8.47;1.77;;;10.60;99.90;;;;;;5094359;28;20183;-41
2023/07/06 04:39:49;;;;;;;15.43;2.03;;;10.60;99.90;;;;;;5094132;28;20220;-39
2023/07/06 04:42:15;;;;;;;6.50;1.50;;;10.60;99.90;;;;;;5094184;28;20228;-43
2023/07/06 04:44:40;;;;;;;8.97;1.70;;;10.70;99.90;;;;;;5094062;28;20553;-42
2023/07/06 04:47:06;;;;;;;8.87;1.70;;;10.70;99.90;;;;;;5092661;28;20167;-43
2023/07/06 04:49:31;;;;;;;6.23;1.70;;;10.80;99.90;;;;;;5095346;28;20243;-46
2023/07/06 04:51:57;;;;;;;5.73;1.67;;;10.90;99.90;;;;;;5094113;28;20605;-48
2023/07/06 04:54:23;;;;;;;3.93;1.70;;;10.90;99.90;;;;;;5093958;28;20560;-47
2023/07/06 04:56:48;;;;;;;8.60;2.10;;;11.00;99.90;;;;;;5092867;28;20179;-45
2023/07/06 04:59:14;;;;;;;5.97;1.67;;;11.10;99.90;;;;;;5093990;28;20179;-47
2023/07/06 05:01:40;;;;;;;6.37;1.70;;;11.20;99.90;;;;;;5093652;28;20205;-47
2023/07/06 05:04:05;;;;;;;9.43;1.80;;;11.30;99.90;;;;;;5093575;28;20170;-48
2023/07/06 05:06:31;;;;;;;8.03;2.00;;;11.30;99.90;;;;;;5093850;28;20177;-47
2023/07/06 05:08:57;;;;;;;8.17;1.93;;;11.40;99.90;;;;;;5093913;28;20261;-46
2023/07/06 05:11:25;;;;;;;9.07;1.70;;;11.50;99.90;;;;;;5093793;28;20206;-46
2023/07/06 05:13:50;;;;;;;8.77;2.17;;;11.60;99.90;;;;;;5093735;28;20221;-47
2023/07/06 05:16:16;;;;;;;4.93;1.43;;;11.70;99.90;;;;;;5093405;28;20225;-47
2023/07/06 05:18:43;;;;;;;5.33;1.93;;;11.70;99.90;;;;;;5093432;28;20171;-47
2023/07/06 05:21:10;;;;;;;6.50;1.40;;;11.70;99.90;;;;;;5093462;28;20639;-48
2023/07/06 05:23:35;;;;;;;7.60;2.10;;;11.80;99.90;;;;;;5093332;28;20191;-47
2023/07/06 05:26:03;;;;;;;8.17;2.00;;;11.90;99.90;;;;;;5093339;28;20206;-47
2023/07/06 05:28:29;;;;;;;6.23;1.80;;;11.90;99.90;;;;;;5093502;28;20163;-45
2023/07/06 05:30:56;;;;;;;5.43;2.07;;;12.00;99.90;;;;;;5093348;28;20194;-48
2023/07/06 05:33:21;;;;;;;3.67;1.93;;;12.10;99.90;;;;;;5093774;28;20209;-46
2023/07/06 05:35:47;;;;;;;6.10;1.80;;;12.20;99.90;;;;;;5093570;28;20683;-42
2023/07/06 05:38:13;;;;;;;4.73;2.03;;;12.20;99.90;;;;;;5093304;28;20181;-42
2023/07/06 05:40:40;;;;;;;6.40;1.83;;;12.30;99.90;;;;;;5093408;28;20189;-43
2023/07/06 05:43:06;;;;;;;8.63;1.63;;;12.40;99.90;;;;;;5093296;28;20205;-42
2023/07/06 05:45:32;;;;;;;8.87;2.03;;;12.50;99.90;;;;;;5093293;28;20304;-42
2023/07/06 05:47:57;;;;;;;5.47;2.10;;;12.50;99.90;;;;;;5093971;28;20214;-47
2023/07/06 05:50:23;;;;;;;4.53;1.67;;;12.70;99.90;;;;;;5093162;28;20202;-47
2023/07/06 05:52:49;;;;;;;6.77;2.33;;;12.80;99.90;;;;;;5093203;28;20182;-46
2023/07/06 05:55:15;;;;;;;7.03;2.00;;;12.90;99.90;;;;;;5093025;28;20210;-45
2023/07/06 05:57:41;;;;;;;7.43;1.60;;;12.90;99.90;;;;;;5093167;28;20182;-46
2023/07/06 06:00:09;;;;;;;5.00;1.80;;;13.00;99.90;;;;;;5093181;28;20190;-48
2023/07/06 06:02:37;;;;;;;5.40;1.80;;;13.10;99.90;;;;;;5093608;28;20543;-48
2023/07/06 06:05:04;;;;;;;6.47;2.17;;;13.20;99.90;;;;;;5093111;28;20248;-47
2023/07/06 06:07:31;;;;;;;6.77;1.73;;;13.30;99.90;;;;;;5094289;28;20179;-45
2023/07/06 06:09:57;;;;;;;4.80;1.47;;;13.40;99.90;;;;;;5097108;28;20175;-45
2023/07/06 06:12:23;;;;;;;5.17;1.90;;;13.60;99.90;;;;;;5096800;28;20171;-46
2023/07/06 06:14:52;;;;;;;4.50;2.53;;;13.70;99.90;;;;;;5096711;28;20733;-47
2023/07/06 06:17:19;;;;;;;7.53;1.63;;;13.90;99.90;;;;;;5096945;28;20187;-47
2023/07/06 06:19:45;;;;;;;8.00;2.53;;;14.10;99.90;;;;;;5096695;28;20270;-47
2023/07/06 06:22:12;;;;;;;6.43;2.17;;;14.30;99.90;;;;;;5096472;28;20308;-47
2023/07/06 06:24:38;;;;;;;13.03;2.30;;;14.40;99.90;;;;;;5095317;28;20229;-45
2023/07/06 06:27:05;;;;;;;7.70;2.10;;;14.70;99.90;;;;;;5096960;28;20206;-46
2023/07/06 06:29:32;;;;;;;7.20;1.70;;;14.80;99.90;;;;;;5096638;28;20232;-45
2023/07/06 06:31:59;;;;;;;4.17;1.70;;;15.00;99.90;;;;;;5096558;28;20206;-45
2023/07/06 06:34:25;;;;;;;6.70;1.70;;;15.20;99.90;;;;;;5096569;28;20560;-46
2023/07/06 06:36:51;;;;;;;5.83;1.90;;;15.40;99.90;;;;;;5096500;28;20186;-47
2023/07/06 06:39:17;;;;;;;5.67;2.57;;;15.50;99.90;;;;;;5095921;28;20777;-47
2023/07/06 06:41:43;;;;;;;6.03;2.20;;;15.70;99.90;;;;;;5096085;28;20277;-46
2023/07/06 06:44:11;;;;;;;5.57;1.80;;;15.80;99.90;;;;;;5096268;28;20227;-46
2023/07/06 06:46:37;;;;;;;8.47;2.00;;;15.90;99.90;;;;;;5096385;28;20178;-44
2023/07/06 06:49:02;;;;;;;5.30;1.60;;;16.00;99.90;;;;;;5097708;28;20542;-47
2023/07/06 06:51:29;;;;;;;7.30;2.40;;;16.20;99.90;;;;;;5096278;28;20222;-47
2023/07/06 06:53:55;;;;;;;7.07;2.10;;;16.40;99.90;;;;;;5096159;28;20550;-49
2023/07/06 06:56:22;;;;;;;6.07;1.83;;;16.50;99.90;;;;;;5096111;28;20199;-47
2023/07/06 06:58:48;;;;;;;9.93;1.90;;;16.60;99.90;;;;;;5096261;28;20646;-48
2023/07/06 07:01:13;;;;;;;6.10;2.00;;;16.70;99.90;;;;;;5095929;28;20254;-48
2023/07/06 07:03:39;;;;;;;5.80;1.97;;;16.80;99.90;;;;;;5095703;28;20268;-47
2023/07/06 07:06:13;;;;;;;12.93;2.33;;;16.80;99.90;;;;;;5095647;28;20552;-48
2023/07/06 07:08:43;;;;;;;8.50;2.40;;;17.00;99.90;;;;;;5096040;28;20616;-48
2023/07/06 07:11:10;;;;;;;3.83;1.90;;;17.20;99.90;;;;;;5095844;28;20220;-46
2023/07/06 07:13:37;;;;;;;5.37;1.90;;;17.40;99.90;;;;;;5095632;28;20596;-48
2023/07/06 07:16:04;;;;;;;9.40;2.20;;;17.50;99.90;;;;;;5095702;28;20210;-48
2023/07/06 07:18:30;;;;;;;8.00;1.83;;;17.60;99.90;;;;;;5094821;28;20190;-47
2023/07/06 07:20:56;;;;;;;6.50;1.80;;;17.60;99.90;;;;;;5095281;28;20225;-49
2023/07/06 07:23:23;;;;;;;6.53;2.00;;;17.70;99.90;;;;;;5095314;28;20195;-44
2023/07/06 07:25:50;;;;;;;6.63;2.10;;;17.70;99.90;;;;;;5095242;28;20195;-43
2023/07/06 07:28:16;;;;;;;6.37;2.27;;;17.70;99.90;;;;;;5095513;28;20179;-43
2023/07/06 07:30:43;;;;;;;9.33;2.30;;;17.80;99.90;;;;;;5095187;28;20185;-44
2023/07/06 07:33:09;;;;;;;8.83;2.23;;;18.00;99.90;;;;;;5095404;28;20183;-44
2023/07/06 07:35:36;;;;;;;7.40;2.17;;;18.20;99.90;;;;;;5095200;28;20663;-42
2023/07/06 07:38:02;;;;;;;7.87;2.00;;;18.30;99.90;;;;;;5095137;28;20170;-43
2023/07/06 07:40:29;;;;;;;8.57;1.93;;;18.30;99.90;;;;;;5095163;28;20170;-43
2023/07/06 07:42:55;;;;;;;10.07;2.20;;;18.50;99.90;;;;;;5095196;28;20571;-44
2023/07/06 07:45:21;;;;;;;5.67;2.10;;;18.70;99.90;;;;;;5095130;28;20191;-46
2023/07/06 07:47:47;;;;;;;5.57;2.10;;;18.70;99.90;;;;;;5095148;28;20210;-44
2023/07/06 07:50:12;;;;;;;6.73;2.07;;;18.80;99.90;;;;;;5096178;28;20167;-48
2023/07/06 07:52:38;;;;;;;6.17;1.90;;;18.90;99.90;;;;;;5094841;28;20174;-47
2023/07/06 07:55:04;;;;;;;4.70;1.67;;;18.90;99.90;;;;;;5094838;28;20199;-47
2023/07/06 07:57:30;;;;;;;6.93;1.93;;;19.00;99.90;;;;;;5094714;28;20209;-47
2023/07/06 07:59:56;;;;;;;7.17;1.90;;;19.10;99.90;;;;;;5095023;28;20179;-47
2023/07/06 08:02:22;;;;;;;5.40;1.63;;;19.20;99.90;;;;;;5094663;28;20195;-47
2023/07/06 08:04:48;;;;;;;5.97;1.77;;;19.20;99.90;;;;;;5094569;28;20565;-47
2023/07/06 08:07:14;;;;;;;5.20;1.80;;;19.40;99.90;;;;;;5094776;28;20193;-49
2023/07/06 08:09:40;;;;;;;6.60;2.23;;;19.50;99.90;;;;;;5094792;28;20229;-47
2023/07/06 08:12:06;;;;;;;4.33;1.70;;;19.60;99.90;;;;;;5094409;28;20647;-48
2023/07/06 08:14:41;;;;;;;5.60;1.70;;;19.70;99.90;;;;;;5094278;28;20202;-48
2023/07/06 08:17:07;;;;;;;6.90;1.53;;;19.80;99.90;;;;;;5094734;28;20246;-48
2023/07/06 08:19:33;;;;;;;4.40;1.80;;;19.90;99.90;;;;;;5094374;28;20175;-47
2023/07/06 08:21:59;;;;;;;4.03;1.50;;;20.00;99.90;;;;;;5094292;28;20544;-48
2023/07/06 08:24:25;;;;;;;3.67;1.30;;;20.00;99.90;;;;;;5094125;28;20218;-48
2023/07/06 08:26:50;;;;;;;5.67;1.50;;;20.10;99.90;;;;;;5094653;28;20217;-48
2023/07/06 08:29:17;;;;;;;4.47;1.60;;;20.10;99.90;;;;;;5094276;28;20175;-46
2023/07/06 08:31:45;;;;;;;3.37;1.23;;;20.20;99.90;;;;;;5094308;28;20259;-48
2023/07/06 08:34:12;;;;;;;4.07;1.40;;;20.20;99.90;;;;;;5094077;28;20261;-49
2023/07/06 08:36:37;;;;;;;3.70;1.33;;;20.40;99.90;;;;;;5094014;28;20175;-49
2023/07/06 08:39:05;;;;;;;3.83;1.33;;;20.50;99.90;;;;;;5093782;28;20193;-48
2023/07/06 08:41:42;;;;;;;3.57;1.27;;;20.60;99.90;;;;;;5094089;28;20639;-48
2023/07/06 08:44:12;;;;;;;5.07;1.47;;;20.60;99.90;;;;;;5094620;28;20530;-49
2023/07/06 08:46:41;;;;;;;2.40;1.10;;;20.70;99.90;;;;;;5094187;28;20531;-50
2023/07/06 08:49:33;;;;;;;3.80;0.97;;;20.80;99.90;;;;;;5095205;28;20167;-44
2023/07/06 08:52:05;;;;;;;3.83;1.27;;;20.90;99.90;;;;;;5093468;28;20672;-45
2023/07/06 08:54:36;;;;;;;3.33;1.10;;;21.00;99.90;;;;;;5093899;28;20280;-44
2023/07/06 08:57:09;;;;;;;2.57;1.00;;;21.20;99.90;;;;;;5094120;28;20205;-42
2023/07/06 08:59:46;;;;;;;3.83;1.13;;;21.40;99.90;;;;;;5094024;28;20171;-43
2023/07/06 09:02:17;;;;;;;5.67;1.00;;;21.40;99.90;;;;;;5093820;28;20281;-46
2023/07/06 09:04:46;;;;;;;1.37;0.83;;;21.50;99.90;;;;;;5093795;28;20198;-46
2023/07/06 09:07:13;;;;;;;2.23;1.00;;;21.60;99.90;;;;;;5093591;28;20517;-45
2023/07/06 09:09:48;;;;;;;2.20;0.97;;;21.70;99.90;;;;;;5093559;28;20197;-43
2023/07/06 09:12:24;;;;;;;2.73;1.10;;;21.80;99.90;;;;;;5093854;28;20623;-44
2023/07/06 09:14:52;;;;;;;2.70;0.90;;;21.90;99.90;;;;;;5093717;28;20205;-45
2023/07/06 09:17:23;;;;;;;3.13;1.20;;;22.00;99.90;;;;;;5093518;28;20175;-45
2023/07/06 09:19:51;;;;;;;2.53;0.93;;;22.10;99.90;;;;;;5093771;28;20170;-45
2023/07/06 09:22:18;;;;;;;2.23;0.87;;;22.10;99.90;;;;;;5093635;28;20244;-46
2023/07/06 09:24:45;;;;;;;4.90;1.10;;;22.10;99.90;;;;;;5093709;28;20286;-44
2023/07/06 09:27:18;;;;;;;2.00;0.90;;;22.10;99.90;;;;;;5093603;28;20184;-44
2023/07/06 09:29:44;;;;;;;1.90;0.90;;;22.20;99.90;;;;;;5092134;28;20182;-44
2023/07/06 09:32:17;;;;;;;3.23;0.87;;;22.40;99.90;;;;;;5093606;28;20182;-45
2023/07/06 09:34:46;;;;;;;2.50;0.90;;;22.40;99.90;;;;;;5093378;28;20187;-47
2023/07/06 09:37:17;;;;;;;3.13;0.90;;;22.60;99.90;;;;;;5093632;28;20178;-44
2023/07/06 09:40:00;;;;;;;2.47;0.90;;;22.70;99.90;;;;;;5093267;28;20658;-44
2023/07/06 09:42:28;;;;;;;2.10;0.90;;;22.90;99.90;;;;;;5094589;28;20198;-46
2023/07/06 09:44:54;;;;;;;5.83;0.93;;;22.90;99.90;;;;;;5097507;28;20195;-45
2023/07/06 09:47:21;;;;;;;3.23;0.70;;;23.00;99.90;;;;;;5097526;28;20544;-44
2023/07/06 09:50:05;;;;;;;3.27;1.17;;;23.00;99.90;;;;;;5099377;28;20171;-48
2023/07/06 09:52:33;;;;;;;1.53;1.00;;;22.90;99.90;;;;;;5097803;28;20506;-50
2023/07/06 09:55:20;;;;;;;2.80;0.90;;;23.00;99.90;;;;;;5096979;28;20586;-49
2023/07/06 09:57:49;;;;;;;0.90;0.70;;;23.10;99.90;;;;;;5097378;28;20167;-50
2023/07/06 10:00:17;;;;;;;2.17;1.00;;;23.20;99.90;;;;;;5097320;28;20183;-50
2023/07/06 10:03:26;;;;;;;2.93;0.87;;;23.30;99.90;;;;;;5097172;28;20208;-49
2023/07/06 10:06:28;;;;;;;3.13;1.30;;;23.30;99.90;;;;;;5096921;28;20198;-49
2023/07/06 10:09:14;;;;;;;4.73;1.13;;;23.20;99.90;;;;;;5097347;28;20591;-50
2023/07/06 10:11:51;;;;;;;2.23;1.30;;;23.30;99.90;;;;;;5097192;28;20611;-50
2023/07/06 10:14:16;;;;;;;2.10;1.00;;;23.30;99.90;;;;;;5097160;28;20571;-50
2023/07/06 10:16:58;;;;;;;2.70;1.00;;;23.30;99.90;;;;;;5096995;28;20177;-50
2023/07/06 10:19:31;;;;;;;2.57;1.03;;;23.30;99.90;;;;;;5097003;28;20160;-50
2023/07/06 10:22:20;;;;;;;4.10;1.23;;;23.40;99.90;;;;;;5096602;28;20194;-49
2023/07/06 10:25:11;;;;;;;3.33;1.10;;;23.50;99.90;;;;;;5096866;28;20209;-49
2023/07/06 10:27:43;;;;;;;3.33;1.20;;;23.70;99.90;;;;;;5096814;28;20238;-50
2023/07/06 10:30:21;;;;;;;2.57;1.47;;;23.80;99.90;;;;;;5096533;28;20561;-49
2023/07/06 10:32:51;;;;;;;3.73;1.13;;;23.80;99.90;;;;;;5096895;28;20698;-50
2023/07/06 10:35:30;;;;;;;4.10;1.20;;;24.00;99.90;;;;;;5096514;28;20244;-50
2023/07/06 10:37:56;;;;;;;3.83;1.10;;;24.20;99.90;;;;;;5096578;28;20202;-50
2023/07/06 10:40:24;;;;;;;4.85;1.10;;;24.40;99.90;;;;;;5096498;28;20178;-50
2023/07/06 10:43:08;;;;;;;2.70;1.23;;;24.40;99.90;;;;;;5096467;28;20297;-50
2023/07/06 10:45:34;;;;;;;2.28;1.17;;;24.40;99.90;;;;;;5096248;28;20190;-50
2023/07/06 10:48:21;;;;;;;1.38;0.90;;;24.40;99.90;;;;;;5097057;28;20653;-51
2023/07/06 10:50:50;;;;;;;2.10;1.10;;;24.50;99.90;;;;;;5096122;28;20159;-50
2023/07/06 10:53:17;;;;;;;2.45;1.40;;;24.60;99.90;;;;;;5095179;28;20266;-50
2023/07/06 10:55:58;;;;;;;3.22;1.20;;;24.80;99.90;;;;;;5094914;28;20217;-51
2023/07/06 10:58:27;;;;;;;6.07;1.10;;;24.90;99.90;;;;;;5095881;28;20509;-50
2023/07/06 11:00:54;;;;;;;1.95;0.90;;;24.90;99.90;;;;;;5096098;28;20210;-52
2023/07/06 11:03:31;;;;;;;2.05;1.10;;;25.00;99.90;;;;;;5095806;28;20290;-51
2023/07/06 11:06:11;;;;;;;5.25;1.08;;;25.10;99.90;;;;;;5095872;28;20191;-51
2023/07/06 11:09:10;;;;;;;2.25;1.10;;;25.10;99.90;;;;;;5096294;28;20155;-49
2023/07/06 11:12:03;;;;;;;2.40;1.10;;;25.10;99.90;;;;;;5095969;28;20174;-51
2023/07/06 11:14:31;;;;;;;6.95;1.48;;;25.20;99.90;;;;;;5095867;28;20194;-51
2023/07/06 11:17:10;;;;;;;2.83;1.05;;;25.30;99.90;;;;;;5095773;28;20263;-50
2023/07/06 11:19:49;;;;;;;4.20;1.00;;;25.30;99.90;;;;;;5095860;28;20181;-51
2023/07/06 11:22:20;;;;;;;2.85;1.17;;;25.40;99.90;;;;;;5095630;28;20194;-50
2023/07/06 11:24:49;;;;;;;2.80;1.02;;;25.40;99.90;;;;;;5095453;28;20202;-50
2023/07/06 11:27:44;;;;;;;5.15;1.33;;;25.30;99.90;;;;;;5095340;28;20177;-50
2023/07/06 11:30:13;;;;;;;3.78;1.27;;;25.20;99.90;;;;;;5095537;28;20274;-51
2023/07/06 11:33:06;;;;;;;2.63;1.20;;;25.20;99.90;;;;;;5095254;28;20776;-51
2023/07/06 11:35:59;;;;;;;1.70;1.08;;;25.30;99.90;;;;;;5095040;28;20217;-49
2023/07/06 11:38:42;;;;;;;1.77;1.08;;;25.30;99.90;;;;;;5095272;28;20191;-50
2023/07/06 11:41:09;;;;;;;1.00;0.80;;;25.20;99.90;;;;;;5095337;28;20545;-51
2023/07/06 11:44:03;;;;;;;1.63;0.75;;;25.00;99.90;;;;;;5095203;28;20194;-50
2023/07/06 11:46:54;;;;;;;2.63;1.10;;;25.10;99.90;;;;;;5095209;28;20156;-51
2023/07/06 11:49:40;;;;;;;1.48;1.00;;;25.00;99.90;;;;;;5094944;28;20171;-52
2023/07/06 11:52:12;;;;;;;2.00;1.10;;;25.00;99.90;;;;;;5096073;28;20227;-52
2023/07/06 11:54:49;;;;;;;1.83;0.98;;;25.00;99.90;;;;;;5094901;28;20248;-51
2023/07/06 11:57:28;;;;;;;8.30;1.30;;;25.20;99.90;;;;;;5095236;28;20163;-51
2023/07/06 12:00:33;;;;;;;2.83;1.13;;;25.30;99.90;;;;;;5095144;28;20167;-51
2023/07/06 12:02:52;;;;;;;3.58;0.80;;;25.60;99.90;;;;;;5094526;28;20226;-51
2023/07/06 12:05:26;;;;;;;2.42;1.00;;;25.80;99.90;;;;;;5094488;28;20198;-50
2023/07/06 12:08:00;;;;;;;1.38;1.02;;;25.80;99.90;;;;;;5094859;28;20550;-52
2023/07/06 12:10:29;;;;;;;4.18;1.30;;;25.90;99.90;;;;;;5095025;28;20172;-50
2023/07/06 12:12:55;;;;;;;1.75;1.08;;;25.90;99.90;;;;;;5094475;28;20174;-44
2023/07/06 12:15:22;;;;;;;3.17;1.08;;;25.80;99.90;;;;;;5094659;28;20198;-45
2023/07/06 12:17:55;;;;;;;2.53;1.30;;;25.70;99.90;;;;;;5094657;28;20212;-45
2023/07/06 12:20:23;;;;;;;2.45;1.10;;;25.70;99.90;;;;;;5094675;28;20247;-46
2023/07/06 12:22:51;;;;;;;6.90;1.27;;;25.70;99.90;;;;;;5094667;28;20286;-44
2023/07/06 12:25:18;;;;;;;1.27;1.00;;;25.70;99.90;;;;;;5094365;28;20198;-46
2023/07/06 12:27:44;;;;;;;5.18;1.00;;;25.80;99.90;;;;;;5094291;28;20175;-45
2023/07/06 12:30:14;;;;;;;3.95;0.98;;;25.70;99.90;;;;;;5094489;28;20179;-44
2023/07/06 12:32:44;;;;;;;1.85;1.02;;;25.70;99.90;;;;;;5094482;28;20554;-46
2023/07/06 12:35:12;;;;;;;1.48;0.90;;;25.70;99.90;;;;;;5094327;28;20199;-43
2023/07/06 12:37:42;;;;;;;1.58;0.95;;;25.70;99.90;;;;;;5094101;28;20182;-44
2023/07/06 12:40:22;;;;;;;1.90;1.10;;;25.60;99.90;;;;;;5093881;28;20247;-45
2023/07/06 12:42:49;;;;;;;3.83;1.20;;;25.60;99.90;;;;;;5093818;28;20249;-47
2023/07/06 12:45:18;;;;;;;2.95;1.15;;;25.70;99.90;;;;;;5094052;28;20313;-45
2023/07/06 12:47:44;;;;;;;2.20;1.02;;;25.80;99.90;;;;;;5094016;28;20297;-45
2023/07/06 12:50:35;;;;;;;1.92;1.20;;;25.90;99.90;;;;;;5093686;28;20202;-51
2023/07/06 12:53:11;;;;;;;2.25;1.20;;;26.00;99.90;;;;;;5093348;28;20726;-51
2023/07/06 12:55:41;;;;;;;2.05;1.10;;;26.00;99.90;;;;;;5093775;28;20190;-50
2023/07/06 12:58:27;;;;;;;4.95;1.50;;;25.90;99.90;;;;;;5093681;28;20279;-50
2023/07/06 13:01:04;;;;;;;1.48;1.10;;;26.00;99.90;;;;;;5093946;28;20269;-51